Time;durP1;ratioP1;P1;durP2;ratioP2;P2;SDS_P1;SDS_P2;PMS_P1;PMS_P2;Temp;Humidity;BMP_temperature;BMP_pressure;BME280_temperature;BME280_humidity;BME280_pressure;Samples;Min_cycle;Max_cycle;Signal;HPM_P1;HPM_P2
2022/02/04 00:25:32;;;;;;;;;;;;;;;3.65;61.60;100455.22;5072114;28;20060;-77
2022/02/04 00:28:03;;;;;;;13.87;7.00;;;;;;;3.40;62.40;100440.25;5075691;28;19920;-77
2022/02/04 00:30:35;;;;;;;14.10;8.30;;;;;;;3.35;61.84;100424.00;5074739;28;20047;-77
2022/02/04 00:33:02;;;;;;;15.37;7.23;;;;;;;3.24;62.41;100428.25;5073502;28;20075;-77
2022/02/04 00:38:21;;;;;;;15.40;7.83;;;;;;;3.48;61.47;100427.50;5073650;28;20016;-77
2022/02/04 00:40:51;;;;;;;14.63;7.67;;;;;;;3.56;61.27;100434.03;5073616;28;20388;-77
2022/02/04 00:43:17;;;;;;;12.20;6.77;;;;;;;3.60;61.47;100443.34;5074129;28;20286;-77
2022/02/04 00:48:24;;;;;;;13.33;7.47;;;;;;;3.44;62.20;100438.28;5074214;28;20087;-78
2022/02/04 00:51:11;;;;;;;11.57;6.97;;;;;;;3.47;61.37;100425.84;5071680;28;20028;-77
2022/02/04 00:56:44;;;;;;;12.83;6.37;;;;;;;3.61;60.59;100451.13;5055399;28;20145;-77
2022/02/04 01:26:18;;;;;;;15.15;6.63;;;;;;;3.73;58.14;100420.66;5077629;28;20062;-77
2022/02/04 01:28:46;;;;;;;10.77;5.93;;;;;;;3.63;58.28;100428.28;5076896;28;20219;-77
2022/02/04 01:31:15;;;;;;;14.00;6.73;;;;;;;3.60;58.72;100428.47;5077876;28;20101;-77
2022/02/04 01:33:41;;;;;;;17.63;7.97;;;;;;;3.68;58.57;100428.81;5078443;28;20043;-78
2022/02/04 01:36:07;;;;;;;13.77;6.70;;;;;;;3.63;58.63;100430.06;5077750;28;20041;-77
2022/02/04 01:38:33;;;;;;;13.97;6.60;;;;;;;3.32;58.22;100395.41;5076372;28;20036;-77
2022/02/04 01:40:59;;;;;;;13.33;6.80;;;;;;;3.40;58.42;100408.84;5078946;28;20257;-77
2022/02/04 01:43:25;;;;;;;10.60;6.07;;;;;;;3.66;58.64;100427.25;5074948;28;20323;-77
2022/02/04 01:45:53;;;;;;;12.43;6.50;;;;;;;3.67;58.67;100434.16;5077521;28;20063;-78
2022/02/04 01:48:18;;;;;;;11.77;6.27;;;;;;;3.83;57.89;100430.41;5077129;28;20040;-77
2022/02/04 01:50:48;;;;;;;12.77;6.50;;;;;;;3.63;58.46;100432.69;5075837;28;20082;-78
2022/02/04 01:53:16;;;;;;;14.27;7.03;;;;;;;3.68;58.49;100427.97;5076359;28;20041;-78
2022/02/04 01:55:44;;;;;;;18.73;7.67;;;;;;;3.75;57.93;100421.38;5077558;28;20036;-77
2022/02/04 01:58:10;;;;;;;12.10;6.23;;;;;;;3.57;58.76;100435.69;5077785;28;20047;-78
2022/02/04 02:00:37;;;;;;;10.10;5.73;;;;;;;3.46;58.20;100418.91;5075859;28;20048;-78
2022/02/04 02:03:06;;;;;;;12.87;6.57;;;;;;;3.45;58.53;100434.72;5077077;28;20032;-77
2022/02/04 02:05:33;;;;;;;11.63;5.90;;;;;;;3.35;58.95;100424.00;5079082;28;20217;-77
2022/02/04 02:08:09;;;;;;;15.80;7.47;;;;;;;3.42;59.02;100443.63;5076674;28;20032;-77
2022/02/04 02:10:36;;;;;;;11.53;6.73;;;;;;;3.14;59.86;100426.22;5076403;28;20051;-77
2022/02/04 02:13:15;;;;;;;16.73;7.47;;;;;;;3.13;59.88;100431.56;5075598;28;20032;-77
2022/02/04 02:45:00;;;;;;;10.90;5.90;;;;;;;3.62;58.10;100460.66;5074994;28;20222;-77
2022/02/04 02:47:46;;;;;;;10.47;5.90;;;;;;;3.77;57.57;100467.50;5074707;28;20064;-78
2022/02/04 02:58:19;;;;;;;39.67;12.68;;;;;;;4.03;56.27;100464.94;5073979;28;20029;-77
2022/02/04 03:03:15;;;;;;;27.97;10.97;;;;;;;3.77;56.81;100456.19;5075652;28;20249;-78
2022/02/04 03:05:41;;;;;;;22.73;8.93;;;;;;;3.85;55.96;100467.81;5077396;28;20081;-77
2022/02/04 03:08:07;;;;;;;19.70;7.90;;;;;;;3.71;56.67;100470.53;5074299;28;20261;-77
2022/02/04 03:10:33;;;;;;;20.20;8.10;;;;;;;3.82;55.85;100470.66;5075414;28;20023;-78
2022/02/04 03:12:58;;;;;;;11.37;6.13;;;;;;;3.60;56.39;100462.53;5075811;28;20029;-77
2022/02/04 03:15:24;;;;;;;11.03;6.70;;;;;;;3.73;55.99;100468.63;5074585;28;20035;-77
2022/02/04 03:17:59;;;;;;;12.95;7.43;;;;;;;3.56;56.60;100461.03;5075294;28;20036;-77
2022/02/04 03:20:25;;;;;;;13.47;6.53;;;;;;;3.77;55.47;100453.56;5075796;28;20047;-78
2022/02/04 03:22:52;;;;;;;9.10;5.27;;;;;;;3.56;56.31;100465.44;5074766;28;20036;-77
2022/02/04 03:25:21;;;;;;;13.93;6.83;;;;;;;3.33;56.78;100444.22;5073746;28;20052;-77
2022/02/04 03:27:51;;;;;;;18.13;6.90;;;;;;;3.61;55.81;100434.56;5076251;28;20037;-78
2022/02/04 03:30:22;;;;;;;14.43;6.23;;;;;;;3.56;55.85;100442.72;5075231;28;20040;-78
2022/02/04 03:32:56;;;;;;;10.20;5.20;;;;;;;3.42;55.78;100450.63;5075372;28;20062;-77
2022/02/04 03:35:22;;;;;;;6.97;4.23;;;;;;;3.41;56.27;100455.03;5074980;28;20037;-77
2022/02/04 03:37:50;;;;;;;12.40;6.07;;;;;;;3.41;56.14;100469.91;5074068;28;20025;-78
2022/02/04 03:40:17;;;;;;;10.70;5.17;;;;;;;3.18;56.45;100463.50;5074705;28;20077;-77
2022/02/04 03:42:44;;;;;;;13.47;6.03;;;;;;;3.18;55.83;100437.34;5074795;28;20337;-77
2022/02/04 03:45:09;;;;;;;11.30;5.30;;;;;;;3.27;55.98;100467.31;5073028;28;20058;-77
2022/02/04 03:47:35;;;;;;;8.77;5.10;;;;;;;3.05;56.36;100436.41;5074478;28;20025;-78
2022/02/04 03:50:00;;;;;;;9.97;5.37;;;;;;;3.20;56.06;100459.88;5074949;28;20327;-77
2022/02/04 03:52:26;;;;;;;15.40;6.37;;;;;;;2.91;56.72;100426.81;5074836;28;20032;-77
2022/02/04 03:54:51;;;;;;;22.23;8.97;;;;;;;3.07;57.14;100463.31;5073721;28;20086;-77
2022/02/04 03:57:17;;;;;;;31.50;10.67;;;;;;;2.96;57.72;100458.78;5074032;28;20315;-78
2022/02/04 03:59:42;;;;;;;24.40;9.50;;;;;;;3.13;57.33;100457.72;5074122;28;20048;-78
2022/02/04 04:02:08;;;;;;;15.17;6.73;;;;;;;2.94;57.44;100431.03;5074936;28;20481;-77
2022/02/04 04:04:34;;;;;;;10.83;5.20;;;;;;;2.78;57.54;100432.00;5074015;28;20029;-77
2022/02/04 04:07:01;;;;;;;14.20;6.53;;;;;;;3.05;57.29;100447.72;5076176;28;20032;-78
2022/02/04 04:09:27;;;;;;;14.33;6.77;;;;;;;3.14;57.07;100455.03;5073429;28;20101;-77
2022/02/04 04:11:54;;;;;;;13.33;6.40;;;;;;;3.14;57.44;100447.16;5074495;28;20047;-77
2022/02/04 04:14:19;;;;;;;11.27;5.77;;;;;;;3.07;56.89;100451.09;5073510;28;20063;-77
2022/02/04 04:16:47;;;;;;;12.87;5.97;;;;;;;2.79;57.94;100451.97;5073927;28;20040;-77
2022/02/04 04:19:13;;;;;;;11.00;5.10;;;;;;;3.04;57.40;100447.81;5074688;28;20044;-78
2022/02/04 04:21:39;;;;;;;12.80;5.20;;;;;;;3.02;56.70;100447.06;5075264;28;20048;-77
2022/02/04 04:24:05;;;;;;;9.50;5.20;;;;;;;2.74;57.38;100434.88;5073518;28;20055;-77
2022/02/04 04:26:30;;;;;;;13.43;6.33;;;;;;;3.08;56.89;100444.06;5076370;28;20036;-78
2022/02/04 04:28:56;;;;;;;15.30;7.03;;;;;;;2.96;56.61;100445.69;5073126;28;20223;-79
2022/02/04 04:31:21;;;;;;;13.03;5.80;;;;;;;2.77;57.08;100434.69;5074311;28;20032;-77
2022/02/04 04:33:47;;;;;;;14.30;5.63;;;;;;;2.84;57.36;100449.06;5074557;28;20020;-77
2022/02/04 04:36:13;;;;;;;14.23;5.40;;;;;;;2.79;57.79;100459.81;5074751;28;20041;-77
2022/02/04 04:39:27;;;;;;;15.40;5.50;;;;;;;2.95;58.11;100469.31;5073621;28;20032;-77
2022/02/04 05:28:15;;;;;;;27.50;10.50;;;;;;;2.74;56.44;100466.28;5069236;28;20043;-77
2022/02/04 05:30:41;;;;;;;25.83;9.50;;;;;;;2.81;57.02;100481.50;5067279;28;20037;-76
2022/02/04 05:33:07;;;;;;;31.10;10.97;;;;;;;2.82;56.69;100461.41;5069932;28;20071;-77
2022/02/04 05:35:32;;;;;;;17.70;8.50;;;;;;;3.04;56.48;100480.06;5071011;28;20096;-77
2022/02/04 05:37:58;;;;;;;24.13;8.77;;;;;;;3.21;55.91;100481.63;5066702;28;20032;-76
2022/02/04 05:40:28;;;;;;;18.47;7.10;;;;;;;3.28;55.21;100480.31;5068596;28;20037;-77
2022/02/04 05:43:01;;;;;;;21.37;7.93;;;;;;;3.25;56.12;100471.81;5070125;28;20055;-77
2022/02/04 05:45:31;;;;;;;15.52;6.88;;;;;;;3.23;55.61;100450.97;5071410;28;20059;-77
2022/02/04 05:48:01;;;;;;;13.10;6.77;;;;;;;3.50;55.04;100493.72;5069944;28;20037;-78
2022/02/04 05:55:55;;;;;;;14.33;6.87;;;;;;;3.68;54.58;100486.44;5074792;28;20040;-77
2022/02/04 06:00:49;;;;;;;20.60;8.20;;;;;;;3.91;53.60;100489.31;5071035;28;20032;-77
2022/02/04 06:03:41;;;;;;;17.77;7.13;;;;;;;3.55;54.15;100498.66;5071453;28;20044;-77
2022/02/04 06:06:46;;;;;;;18.60;7.00;;;;;;;3.30;54.97;100504.63;5075640;28;20035;-77
2022/02/04 06:24:34;;;;;;;28.83;10.43;;;;;;;2.87;56.71;100522.97;5070566;28;20049;-77
2022/02/04 06:27:00;;;;;;;24.10;10.37;;;;;;;2.77;56.80;100485.22;5069298;28;20270;-77
2022/02/04 06:29:26;;;;;;;62.37;19.87;;;;;;;3.17;55.82;100520.25;5085458;28;20060;-77
2022/02/04 06:31:52;;;;;;;78.33;19.43;;;;;;;2.92;56.73;100527.91;5072229;28;20048;-77
2022/02/04 06:34:18;;;;;;;23.13;8.10;;;;;;;2.85;56.69;100529.22;5067855;28;20068;-78
2022/02/04 06:36:44;;;;;;;29.30;9.87;;;;;;;2.67;57.68;100528.56;5073790;28;20285;-78
2022/02/04 06:39:09;;;;;;;70.20;16.13;;;;;;;2.46;58.58;100527.25;5073368;28;20020;-77
2022/02/04 06:41:35;;;;;;;119.77;26.03;;;;;;;2.55;57.72;100526.69;5072399;28;20035;-77
2022/02/04 06:44:02;;;;;;;115.80;23.80;;;;;;;2.97;57.63;100530.25;5074229;28;20207;-78
2022/02/04 06:46:28;;;;;;;83.67;18.50;;;;;;;3.19;56.94;100538.47;5072424;28;20025;-77
2022/02/04 06:48:54;;;;;;;28.50;10.83;;;;;;;3.56;56.66;100530.91;5065145;28;20075;-77
2022/02/04 06:51:20;;;;;;;65.77;17.77;;;;;;;3.66;56.33;100522.38;5071199;28;20322;-77
2022/02/04 06:53:45;;;;;;;57.70;14.67;;;;;;;3.64;56.20;100537.34;5072049;28;20036;-77
2022/02/04 06:56:11;;;;;;;59.00;14.00;;;;;;;3.42;57.37;100539.63;5068748;28;20200;-77
2022/02/04 06:58:36;;;;;;;47.47;12.90;;;;;;;3.57;56.49;100525.56;5067432;28;20311;-77
2022/02/04 07:01:01;;;;;;;49.17;13.17;;;;;;;3.68;56.02;100519.66;5071079;28;20036;-77
2022/02/04 07:03:27;;;;;;;20.23;8.57;;;;;;;3.55;56.74;100521.38;5083393;28;20071;-78
2022/02/04 07:05:56;;;;;;;29.60;10.33;;;;;;;3.35;56.68;100544.44;5067915;28;20040;-77
2022/02/04 07:08:57;;;;;;;34.73;9.83;;;;;;;3.48;56.22;100528.78;5074951;28;20095;-77
2022/02/04 07:21:54;;;;;;;28.60;8.68;;;;;;;3.87;54.08;100537.63;5065240;28;20059;-78
2022/02/04 07:24:19;;;;;;;27.23;9.33;;;;;;;3.97;53.49;100523.81;5069417;28;20037;-78
2022/02/04 07:26:45;;;;;;;34.53;10.77;;;;;;;3.91;53.37;100518.97;5065197;28;20017;-77
2022/02/04 07:29:10;;;;;;;24.13;9.93;;;;;;;4.08;53.80;100541.47;5073310;28;20043;-77
2022/02/04 07:31:39;;;;;;;23.57;9.37;;;;;;;4.71;52.76;100536.31;5064623;28;20033;-77
2022/02/04 07:34:22;;;;;;;19.07;7.53;;;;;;;4.94;51.96;100536.50;5072683;28;20029;-77
2022/02/04 07:42:01;;;;;;;16.15;7.68;;;;;;;4.79;51.36;100533.16;5070442;28;20020;-77
2022/02/04 07:44:26;;;;;;;10.10;5.47;;;;;;;4.63;51.45;100536.00;5068853;28;20246;-77
2022/02/04 07:46:52;;;;;;;10.00;5.67;;;;;;;4.30;52.37;100533.03;5071293;28;20036;-77
2022/02/04 07:49:17;;;;;;;28.65;7.63;;;;;;;4.64;52.04;100537.69;5076268;28;20267;-77
2022/02/04 07:51:43;;;;;;;16.87;6.37;;;;;;;4.68;52.62;100530.44;5074058;28;20314;-78
2022/02/04 07:54:08;;;;;;;12.43;5.87;;;;;;;4.71;52.07;100528.44;5074380;28;20040;-78
2022/02/04 07:56:34;;;;;;;13.93;6.53;;;;;;;4.51;52.25;100530.75;5073564;28;20028;-77
2022/02/04 07:59:06;;;;;;;17.17;7.15;;;;;;;4.68;52.67;100535.69;5075080;28;20044;-77
2022/02/04 08:01:32;;;;;;;11.70;5.72;;;;;;;4.78;52.44;100529.69;5073980;28;20045;-77
2022/02/04 08:04:12;;;;;;;11.68;5.82;;;;;;;4.69;51.87;100521.63;5073426;28;20020;-77
2022/02/04 08:06:43;;;;;;;11.48;5.05;;;;;;;4.94;51.61;100520.75;5072758;28;20202;-77
2022/02/04 08:09:32;;;;;;;11.93;5.20;;;;;;;4.91;51.59;100526.22;5074411;28;20215;-76
2022/02/04 08:33:56;;;;;;;;;;;;;;;5.73;49.51;100513.28;5069009;28;20036;-79
2022/02/04 08:36:54;;;;;;;11.43;5.60;;;;;;;5.96;49.61;100506.38;5074158;28;19916;-79
2022/02/04 08:59:59;;;;;;;15.82;6.78;;;;;;;6.30;50.02;100499.44;5079734;28;20039;-78
2022/02/04 09:02:41;;;;;;;17.55;8.02;;;;;;;6.85;48.65;100520.69;5077736;28;20048;-80
2022/02/04 09:05:08;;;;;;;21.45;8.45;;;;;;;6.89;48.80;100514.22;5078989;28;20113;-80
2022/02/04 09:08:09;;;;;;;14.90;6.68;;;;;;;6.96;48.04;100507.50;5079757;28;20028;-80
2022/02/04 09:10:23;;;;;;;10.32;5.88;;;;;;;6.80;46.86;100533.34;5078094;28;20124;-79
2022/02/04 09:18:34;;;;;;;21.88;6.78;;;;;;;6.92;47.90;100503.44;5078549;28;20096;-79
2022/02/04 09:23:22;;;;;;;12.45;6.68;;;;;;;7.31;48.29;100524.03;5083577;28;20028;-80
2022/02/04 09:25:48;;;;;;;11.35;6.05;;;;;;;7.02;48.59;100502.59;5083132;28;20032;-79
2022/02/04 09:28:13;;;;;;;11.52;5.70;;;;;;;7.23;46.93;100504.50;5084072;28;20029;-79
2022/02/04 09:30:39;;;;;;;12.43;6.60;;;;;;;7.34;46.17;100517.69;5083985;28;20068;-79
2022/02/04 09:33:05;;;;;;;13.18;5.97;;;;;;;7.45;47.32;100512.38;5082956;28;20025;-80
2022/02/04 09:35:31;;;;;;;14.60;7.65;;;;;;;7.88;47.23;100506.25;5082689;28;20028;-80
2022/02/04 09:37:57;;;;;;;14.45;7.22;;;;;;;7.85;46.89;100501.25;5082989;28;20085;-79
2022/02/04 09:40:23;;;;;;;11.10;5.63;;;;;;;7.46;46.81;100498.25;5083468;28;20350;-79
2022/02/04 09:42:50;;;;;;;15.00;6.07;;;;;;;7.21;48.31;100467.75;5082301;28;20104;-79
2022/02/04 09:45:19;;;;;;;13.40;6.30;;;;;;;7.50;48.37;100497.03;5082630;28;20330;-80
2022/02/04 09:47:55;;;;;;;14.30;6.60;;;;;;;7.75;49.83;100484.50;5082246;28;20029;-80
2022/02/04 09:50:23;;;;;;;13.73;6.00;;;;;;;7.53;49.20;100491.53;5082868;28;20044;-79
2022/02/04 10:19:39;;;;;;;10.88;7.38;;;;;;;7.08;50.92;100469.69;5075296;28;20028;-79
2022/02/04 10:22:05;;;;;;;;;;;;;;;7.35;53.01;100462.22;5075165;28;20032;-80
2022/02/04 10:24:32;;;;;;;14.95;6.03;;;;;;;7.75;50.46;100458.97;5076929;28;19930;-80
2022/02/04 10:27:19;;;;;;;12.77;7.07;;;;;;;7.87;50.71;100465.03;5074195;28;20031;-77
2022/02/04 10:30:06;;;;;;;10.25;6.00;;;;;;;7.89;49.44;100456.03;5074825;28;20036;-77
2022/02/04 10:32:45;;;;;;;16.70;7.20;;;;;;;7.60;49.84;100452.34;5075619;28;20036;-79
2022/02/04 10:35:27;;;;;;;13.85;6.70;;;;;;;7.43;50.13;100450.22;5077573;28;20037;-80
2022/02/04 10:38:06;;;;;;;15.40;5.70;;;;;;;7.59;49.95;100442.75;5075904;28;20036;-80
2022/02/04 10:45:58;;;;;;;9.90;5.63;;;;;;;8.10;45.54;100434.09;5074027;28;20028;-77
2022/02/04 10:48:48;;;;;;;10.73;5.68;;;;;;;8.15;47.08;100435.38;5075231;28;20041;-77
2022/02/04 10:51:43;;;;;;;12.43;5.80;;;;;;;8.14;46.59;100433.72;5076969;28;20044;-78
2022/02/04 10:59:58;;;;;;;11.10;6.40;;;;;;;7.98;47.07;100420.16;5052745;28;20031;-77
2022/02/04 11:43:58;;;;;;;16.27;6.80;;;;;;;7.92;44.61;100375.84;5080771;28;20035;-78
2022/02/04 11:54:55;;;;;;;15.20;6.13;;;;;;;8.14;45.36;100354.56;5081416;28;20108;-78
2022/02/04 11:57:37;;;;;;;11.55;5.68;;;;;;;7.86;44.67;100349.97;5079819;28;20048;-79
2022/02/04 12:00:18;;;;;;;11.32;5.82;;;;;;;7.95;45.27;100354.47;5079482;28;20036;-79
2022/02/04 12:02:51;;;;;;;13.82;6.18;;;;;;;8.15;43.98;100342.22;5079153;28;20025;-78
2022/02/04 12:05:17;;;;;;;7.10;4.90;;;;;;;8.24;43.45;100338.78;5078308;28;20032;-78
2022/02/04 12:07:44;;;;;;;10.35;5.60;;;;;;;7.88;44.74;100308.50;5077931;28;20074;-78
2022/02/04 12:10:13;;;;;;;42.47;11.45;;;;;;;7.99;43.13;100318.97;5078832;28;20021;-78
2022/02/04 12:12:54;;;;;;;11.75;6.05;;;;;;;8.02;44.94;100318.72;5079818;28;20020;-78
2022/02/04 12:15:28;;;;;;;10.35;5.60;;;;;;;8.26;42.96;100315.75;5079891;28;20033;-79
2022/02/04 12:17:58;;;;;;;13.45;6.20;;;;;;;8.27;42.50;100315.63;5079389;28;20249;-78
2022/02/04 12:20:46;;;;;;;10.50;5.13;;;;;;;8.51;42.33;100311.88;5080496;28;20293;-78
2022/02/04 12:23:31;;;;;;;10.23;5.45;;;;;;;8.52;42.37;100311.72;5078597;28;20342;-78
2022/02/04 12:26:04;;;;;;;10.80;5.47;;;;;;;8.48;42.76;100314.78;5076692;28;20028;-78
2022/02/04 12:28:35;;;;;;;11.20;5.47;;;;;;;8.27;42.78;100314.78;5079031;28;20032;-78
2022/02/04 12:31:08;;;;;;;17.83;6.15;;;;;;;8.14;42.04;100309.72;5079009;28;20056;-79
2022/02/04 12:33:42;;;;;;;14.77;6.20;;;;;;;8.20;41.92;100311.84;5078450;28;20021;-78
2022/02/04 12:36:32;;;;;;;16.38;7.20;;;;;;;8.50;40.71;100305.75;5078214;28;20032;-78
2022/02/04 12:39:00;;;;;;;11.85;5.50;;;;;;;8.51;41.95;100298.66;5078739;28;20322;-78
2022/02/04 12:41:29;;;;;;;15.07;6.28;;;;;;;8.56;41.86;100299.94;5077537;28;20039;-78
2022/02/04 12:43:57;;;;;;;10.13;5.13;;;;;;;8.66;42.04;100299.94;5080005;28;20388;-78
2022/02/04 12:46:25;;;;;;;13.35;5.38;;;;;;;8.73;41.96;100303.72;5078121;28;20013;-78
2022/02/04 12:49:07;;;;;;;8.70;4.72;;;;;;;9.02;41.63;100297.63;5083577;28;20037;-79
2022/02/04 12:54:10;;;;;;;9.00;5.63;;;;;;;8.90;41.70;100281.06;5077147;28;20020;-78
2022/02/04 12:56:40;;;;;;;9.18;5.20;;;;;;;9.01;41.16;100294.16;5082729;28;20381;-78
2022/02/04 13:10:28;;;;;;;15.95;6.13;;;;;;;8.41;41.69;100303.91;5058995;28;20080;-78
2022/02/04 13:13:01;;;;;;;16.77;7.13;;;;;;;8.48;42.21;100296.31;5060415;28;20331;-78
2022/02/04 13:15:29;;;;;;;11.85;5.85;;;;;;;8.49;42.49;100300.59;5063494;28;20032;-78
2022/02/04 13:17:55;;;;;;;13.52;5.97;;;;;;;8.53;42.54;100297.56;5082013;28;20035;-78
2022/02/04 13:20:22;;;;;;;16.27;6.68;;;;;;;8.39;41.85;100252.25;5081251;28;20036;-79
2022/02/04 13:22:53;;;;;;;9.75;5.82;;;;;;;8.80;40.14;100294.28;5082926;28;20257;-78
2022/02/04 13:25:22;;;;;;;11.75;5.68;;;;;;;8.71;42.65;100297.75;5082347;28;20044;-79
2022/02/04 13:28:06;;;;;;;9.27;5.22;;;;;;;8.42;42.53;100292.41;5081984;28;20036;-79
2022/02/04 13:30:34;;;;;;;14.45;6.75;;;;;;;8.12;41.59;100287.09;5083457;28;20072;-78
2022/02/04 13:33:00;;;;;;;10.68;5.38;;;;;;;8.34;41.06;100294.03;5080817;28;20323;-78
2022/02/04 13:35:34;;;;;;;13.13;5.90;;;;;;;8.75;40.37;100280.66;5082358;28;20043;-79
2022/02/04 13:38:14;;;;;;;11.60;6.07;;;;;;;8.70;41.68;100277.59;5081979;28;20032;-79
2022/02/04 13:43:30;;;;;;;8.20;5.05;;;;;;;8.64;40.24;100267.56;5082897;28;20039;-78
2022/02/04 13:46:04;;;;;;;8.85;4.40;;;;;;;8.85;40.11;100272.75;5082258;28;20214;-78
2022/02/04 13:48:42;;;;;;;9.55;4.47;;;;;;;8.55;40.14;100271.88;5080747;28;20319;-78
2022/02/04 13:51:22;;;;;;;7.53;4.30;;;;;;;8.51;40.85;100259.06;5083028;28;20096;-79
2022/02/04 13:54:24;;;;;;;8.88;3.95;;;;;;;8.75;40.48;100248.97;5082854;28;20051;-79
2022/02/04 13:57:07;;;;;;;21.92;9.20;;;;;;;8.70;39.64;100255.63;5082668;28;20036;-80
2022/02/04 13:59:44;;;;;;;11.88;6.28;;;;;;;8.75;40.85;100261.34;5081249;28;20024;-80
2022/02/04 14:02:15;;;;;;;7.55;4.40;;;;;;;8.67;40.78;100247.97;5081705;28;20032;-79
2022/02/04 14:04:56;;;;;;;10.10;4.45;;;;;;;8.57;40.56;100235.59;5081842;28;20425;-78
2022/02/04 14:07:50;;;;;;;22.35;7.70;;;;;;;8.47;39.46;100255.88;5081471;28;20367;-79
2022/02/04 14:10:38;;;;;;;13.05;5.35;;;;;;;8.71;39.02;100257.31;5081796;28;20037;-80
2022/02/04 14:13:09;;;;;;;12.65;5.88;;;;;;;8.90;39.62;100263.44;5075251;28;20044;-79
2022/02/04 14:15:38;;;;;;;15.75;6.57;;;;;;;8.89;39.14;100258.28;5077656;28;20051;-79
2022/02/04 14:18:09;;;;;;;8.73;4.50;;;;;;;8.83;39.20;100251.75;5076789;28;20066;-79
2022/02/04 14:20:36;;;;;;;9.50;5.50;;;;;;;8.40;39.23;100256.56;5075917;28;20040;-80
2022/02/04 14:23:04;;;;;;;12.57;5.55;;;;;;;8.81;39.63;100237.00;5075593;28;20131;-79
2022/02/04 14:25:29;;;;;;;7.63;4.35;;;;;;;8.93;39.43;100244.66;5075545;28;20037;-79
2022/02/04 14:27:58;;;;;;;7.75;4.18;;;;;;;9.08;38.53;100241.59;5077272;28;20041;-79
2022/02/04 14:30:29;;;;;;;11.65;6.10;;;;;;;9.28;37.53;100237.94;5076918;28;20039;-79
2022/02/04 14:33:03;;;;;;;20.02;5.88;;;;;;;9.17;37.76;100243.38;5076078;28;20028;-78
2022/02/04 14:35:46;;;;;;;10.38;5.07;;;;;;;9.03;37.68;100235.91;5075694;28;20284;-78
2022/02/04 15:05:39;;;;;;;4.90;3.33;;;;;;;8.57;45.68;100226.84;5072916;28;20036;-77
2022/02/04 15:08:10;;;;;;;7.82;3.70;;;;;;;8.45;46.72;100223.50;5073991;28;20025;-78
2022/02/04 15:10:38;;;;;;;5.78;3.50;;;;;;;8.42;43.08;100220.31;5075865;28;20337;-77
2022/02/04 15:13:07;;;;;;;8.10;3.70;;;;;;;8.55;42.78;100221.72;5075726;28;20036;-77
2022/02/04 15:15:32;;;;;;;8.43;3.88;;;;;;;8.18;43.99;100210.91;5075148;28;20029;-78
2022/02/04 15:17:58;;;;;;;7.30;4.22;;;;;;;8.19;47.15;100238.09;5075467;28;20029;-78
2022/02/04 15:20:23;;;;;;;5.63;3.97;;;;;;;8.35;47.72;100235.84;5076788;28;20139;-78
2022/02/04 15:22:49;;;;;;;4.78;3.17;;;;;;;8.43;41.89;100232.53;5075153;28;20048;-78
2022/02/04 15:25:22;;;;;;;9.40;3.80;;;;;;;8.24;42.70;100214.78;5076891;28;20037;-78
2022/02/04 15:30:40;;;;;;;10.85;4.45;;;;;;;8.53;44.83;100242.13;5066107;28;20036;-79
2022/02/04 15:33:06;;;;;;;8.00;4.25;;;;;;;8.54;46.72;100235.06;5076061;28;20032;-78
2022/02/04 15:35:32;;;;;;;7.18;5.53;;;;;;;8.30;46.95;100246.75;5073224;28;20241;-78
2022/02/04 15:37:58;;;;;;;7.90;5.05;;;;;;;8.15;46.63;100240.19;5076439;28;20035;-78
2022/02/04 15:40:23;;;;;;;13.90;5.72;;;;;;;7.99;47.45;100235.41;5075315;28;20326;-78
2022/02/04 15:43:01;;;;;;;12.82;6.40;;;;;;;7.87;47.81;100240.91;5075267;28;20070;-78
2022/02/04 16:01:12;;;;;;;12.82;6.32;;;;;;;7.79;50.71;100253.94;5073532;28;20047;-78
2022/02/04 16:06:12;;;;;;;11.65;6.75;;;;;;;7.44;49.57;100247.22;5073928;28;20032;-78
2022/02/04 16:08:37;;;;;;;15.88;6.35;;;;;;;7.31;49.91;100226.34;5075077;28;20314;-78
2022/02/04 16:18:39;;;;;;;11.52;6.75;;;;;;;6.84;52.07;100242.59;5074636;28;20036;-79
2022/02/04 16:28:51;;;;;;;15.77;8.43;;;;;;;6.51;54.39;100257.56;5069714;28;20029;-78
2022/02/04 16:31:18;;;;;;;19.55;9.85;;;;;;;6.53;53.98;100257.44;5074026;28;20191;-78
2022/02/04 16:33:47;;;;;;;17.85;10.40;;;;;;;6.45;54.55;100257.22;5075245;28;20020;-78
2022/02/04 16:36:15;;;;;;;21.83;11.30;;;;;;;6.36;54.51;100254.34;5072625;28;20040;-78
2022/02/04 16:38:52;;;;;;;26.33;11.45;;;;;;;6.35;55.10;100257.94;5073202;28;20344;-78
2022/02/04 16:41:29;;;;;;;25.90;12.50;;;;;;;6.28;54.32;100235.72;5072173;28;20425;-78
2022/02/04 16:43:54;;;;;;;31.73;12.85;;;;;;;6.38;55.24;100252.44;5075685;28;20031;-78
2022/02/04 16:46:20;;;;;;;59.88;23.13;;;;;;;6.47;54.72;100257.91;5078281;28;20036;-78
2022/02/04 16:48:45;;;;;;;117.63;41.17;;;;;;;6.42;55.62;100253.03;5078282;28;20032;-78
2022/02/04 16:51:13;;;;;;;67.18;26.98;;;;;;;6.28;55.26;100227.00;5078749;28;20029;-78
2022/02/04 16:53:38;;;;;;;70.25;26.88;;;;;;;6.53;54.94;100257.44;5077346;28;20021;-78
2022/02/04 16:56:04;;;;;;;64.03;26.98;;;;;;;6.46;55.36;100254.47;5077692;28;20338;-78
2022/02/04 16:58:30;;;;;;;82.47;35.70;;;;;;;6.60;55.03;100250.72;5077711;28;20350;-79
2022/02/04 17:00:57;;;;;;;183.68;69.28;;;;;;;6.81;53.87;100248.13;5077946;28;20104;-78
2022/02/04 17:03:23;;;;;;;65.68;26.02;;;;;;;6.68;54.52;100237.78;5077808;28;20042;-78
2022/02/04 17:08:21;;;;;;;62.65;26.75;;;;;;;6.56;55.19;100254.56;5075463;28;20107;-78
2022/02/04 17:10:54;;;;;;;30.13;14.45;;;;;;;6.13;56.45;100249.22;5078073;28;20099;-78
2022/02/04 17:13:23;;;;;;;34.60;15.15;;;;;;;5.90;57.57;100230.00;5078493;28;20021;-78
2022/02/04 17:15:48;;;;;;;30.73;13.85;;;;;;;5.32;60.39;100248.44;5078491;28;20294;-77
2022/02/04 17:18:14;;;;;;;32.03;15.82;;;;;;;5.11;60.89;100244.78;5078062;28;20035;-78
2022/02/04 17:20:40;;;;;;;32.65;14.88;;;;;;;5.03;60.88;100221.72;5078223;28;20323;-78
2022/02/04 17:23:09;;;;;;;30.45;15.50;;;;;;;5.16;61.36;100245.28;5077112;28;20029;-78
2022/02/04 17:25:35;;;;;;;30.00;15.67;;;;;;;5.13;61.55;100240.25;5078604;28;20155;-78
2022/02/04 17:28:02;;;;;;;49.70;19.95;;;;;;;5.13;61.62;100251.59;5078712;28;20040;-77
2022/02/04 17:30:28;;;;;;;49.57;20.50;;;;;;;4.90;61.58;100249.84;5083420;28;20063;-77
2022/02/04 17:32:54;;;;;;;50.73;21.57;;;;;;;4.80;62.21;100256.72;5081165;28;20033;-78
2022/02/04 17:35:22;;;;;;;55.30;22.50;;;;;;;4.96;61.49;100256.41;5079590;28;20342;-77
2022/02/04 17:37:51;;;;;;;55.38;22.83;;;;;;;5.21;60.61;100247.59;5078334;28;20032;-76
2022/02/04 17:40:17;;;;;;;68.97;25.90;;;;;;;5.22;60.05;100259.75;5070239;28;20037;-76
2022/02/04 17:42:43;;;;;;;56.20;24.50;;;;;;;5.26;60.28;100263.81;5076419;28;20020;-77
2022/02/04 17:45:11;;;;;;;52.85;23.98;;;;;;;5.06;59.98;100252.16;5079977;28;20039;-78
2022/02/04 17:47:40;;;;;;;60.28;25.75;;;;;;;5.01;60.02;100252.50;5080370;28;20204;-78
2022/02/04 17:50:18;;;;;;;61.07;26.27;;;;;;;4.40;62.44;100264.03;5082102;28;20028;-78
2022/02/04 17:52:52;;;;;;;60.77;25.30;;;;;;;4.00;63.66;100264.19;5081788;28;20025;-78
2022/02/04 17:55:26;;;;;;;54.77;24.93;;;;;;;3.74;64.42;100231.97;5081432;28;20111;-78
2022/02/04 17:58:24;;;;;;;43.80;18.13;;;;;;;4.06;63.65;100260.31;5082592;28;20028;-78
2022/02/04 18:08:28;;;;;;;44.78;19.17;;;;;;;3.62;66.02;100256.38;5081049;28;20225;-78
2022/02/04 18:10:54;;;;;;;49.67;19.03;;;;;;;3.43;66.67;100241.09;5081843;28;20040;-80
2022/02/04 18:13:20;;;;;;;42.40;19.83;;;;;;;3.59;66.24;100243.50;5081465;28;20075;-77
2022/02/04 18:15:46;;;;;;;48.73;19.13;;;;;;;3.84;65.38;100253.13;5079822;28;20025;-77
2022/02/04 18:18:17;;;;;;;77.33;24.07;;;;;;;4.07;64.60;100256.75;5074688;28;20218;-77
2022/02/04 18:20:43;;;;;;;61.37;22.27;;;;;;;4.14;63.68;100250.13;5072723;28;20052;-78
2022/02/04 18:23:16;;;;;;;51.47;21.87;;;;;;;4.10;63.45;100236.41;5069048;28;20024;-77
2022/02/04 18:25:42;;;;;;;49.93;21.07;;;;;;;4.16;63.05;100241.25;5069557;28;20025;-77
2022/02/04 18:28:08;;;;;;;48.13;19.20;;;;;;;4.34;62.77;100256.59;5069672;28;20017;-76
2022/02/04 18:30:35;;;;;;;45.07;19.57;;;;;;;4.20;62.64;100248.88;5072594;28;20345;-76
2022/02/04 18:33:02;;;;;;;49.33;19.27;;;;;;;4.39;62.38;100247.47;5073027;28;20235;-77